createdAt,value
2019-04-21T00:01:47.450Z,8.19
2019-04-21T00:04:24.547Z,8.17
2019-04-21T00:07:08.701Z,8.06
2019-04-21T00:09:50.249Z,8.04
2019-04-21T00:12:13.992Z,7.99
2019-04-21T00:14:39.763Z,8.04
2019-04-21T00:17:07.793Z,7.96
2019-04-21T00:19:45.841Z,7.82
2019-04-21T00:22:33.150Z,7.76
2019-04-21T00:25:08.970Z,7.75
2019-04-21T00:27:38.635Z,7.74
2019-04-21T00:30:17.324Z,7.60
2019-04-21T00:32:41.856Z,7.56
2019-04-21T00:35:10.061Z,7.54
2019-04-21T00:38:13.154Z,7.52
2019-04-21T00:40:36.554Z,7.50
2019-04-21T00:43:03.724Z,7.46
2019-04-21T00:45:31.592Z,7.45
2019-04-21T00:48:11.370Z,7.35
2019-04-21T00:51:03.427Z,7.31
2019-04-21T00:53:33.433Z,7.24
2019-04-21T00:56:05.770Z,7.16
2019-04-21T00:58:33.176Z,7.18
2019-04-21T01:01:05.532Z,7.13
2019-04-21T01:03:40.170Z,7.12
2019-04-21T01:06:16.481Z,7.04
2019-04-21T01:08:51.807Z,7.00
2019-04-21T01:11:17.852Z,6.99
2019-04-21T01:14:01.040Z,6.96
2019-04-21T01:16:37.496Z,6.96
2019-04-21T01:19:03.592Z,6.84
2019-04-21T01:21:14.412Z,6.79
2019-04-21T01:23:46.539Z,6.77
2019-04-21T01:26:30.729Z,6.73
2019-04-21T01:29:06.970Z,6.70
2019-04-21T01:31:41.914Z,6.68
2019-04-21T01:34:15.041Z,6.72
2019-04-21T01:36:47.482Z,6.67
2019-04-21T01:39:27.429Z,6.67
2019-04-21T01:42:04.945Z,6.69
2019-04-21T01:44:36.094Z,6.78
2019-04-21T01:47:02.859Z,6.54
2019-04-21T01:49:29.578Z,6.44
2019-04-21T01:55:06.502Z,6.38
2019-04-21T01:57:58.939Z,6.34
2019-04-21T02:00:46.953Z,6.33
2019-04-21T02:03:41.671Z,6.31
2019-04-21T02:06:02.731Z,6.26
2019-04-21T02:08:28.769Z,6.43
2019-04-21T02:11:07.581Z,6.36
2019-04-21T02:13:35.184Z,6.29
2019-04-21T02:16:11.392Z,6.18
2019-04-21T02:18:39.006Z,6.13
2019-04-21T02:21:04.449Z,6.09
2019-04-21T02:23:57.462Z,6.07
2019-04-21T02:26:23.125Z,6.04
2019-04-21T02:31:41.826Z,5.99
2019-04-21T02:34:04.555Z,5.97
2019-04-21T02:36:58.620Z,5.92
2019-04-21T02:41:57.937Z,5.90
2019-04-21T02:46:46.399Z,5.77
2019-04-21T02:54:47.722Z,5.71
2019-04-21T02:59:55.831Z,5.64
2019-04-21T03:02:36.726Z,5.62
2019-04-21T03:05:29.650Z,5.59
2019-04-21T03:10:41.484Z,5.53
2019-04-21T03:13:06.036Z,5.44
2019-04-21T03:15:37.364Z,5.48
2019-04-21T03:20:49.104Z,5.40
2019-04-21T03:25:52.129Z,5.31
2019-04-21T03:28:29.813Z,5.31
2019-04-21T03:31:25.456Z,5.23
2019-04-21T03:38:42.991Z,4.95
2019-04-21T03:41:10.626Z,4.87
2019-04-21T03:46:25.686Z,4.75
2019-04-21T03:48:51.750Z,4.73
2019-04-21T03:54:00.258Z,4.88
2019-04-21T04:02:15.886Z,4.30
2019-04-21T04:05:08.817Z,4.56
2019-04-21T04:08:22.766Z,4.53
2019-04-21T04:10:44.576Z,4.54
2019-04-21T04:13:04.621Z,4.54
2019-04-21T04:18:17.742Z,4.50
2019-04-21T04:21:06.090Z,4.47
2019-04-21T04:23:41.459Z,4.37
2019-04-21T04:25:49.431Z,4.32
2019-04-21T04:28:28.823Z,4.44
2019-04-21T04:31:08.215Z,4.34
2019-04-21T04:36:10.802Z,4.34
2019-04-21T04:38:54.450Z,4.09
2019-04-21T04:41:43.706Z,4.00
2019-04-21T04:44:13.682Z,3.84
2019-04-21T04:46:52.821Z,3.65
2019-04-21T04:49:23.708Z,3.86
2019-04-21T04:54:31.662Z,4.14
2019-04-21T04:56:58.960Z,4.18
2019-04-21T05:02:11.609Z,4.22
2019-04-21T05:05:03.135Z,4.24
2019-04-21T05:07:11.853Z,4.32
2019-04-21T05:12:08.962Z,4.35
2019-04-21T05:14:48.278Z,4.41
2019-04-21T05:22:21.953Z,4.56
2019-04-21T05:24:49.391Z,4.59
2019-04-21T05:27:51.677Z,4.64
2019-04-21T05:30:58.384Z,4.70
2019-04-21T05:33:44.821Z,4.71
2019-04-21T05:36:52.121Z,4.78
2019-04-21T05:39:40.974Z,4.85
2019-04-21T05:42:07.223Z,4.92
2019-04-21T05:47:26.292Z,5.23
2019-04-21T05:50:06.508Z,5.27
2019-04-21T05:52:50.360Z,5.44
2019-04-21T05:55:36.103Z,5.65
2019-04-21T05:58:02.725Z,5.70
2019-04-21T06:00:59.518Z,5.73
2019-04-21T06:03:30.692Z,5.98
2019-04-21T06:05:58.447Z,6.09
2019-04-21T06:08:21.649Z,6.25
2019-04-21T06:10:55.609Z,6.39
2019-04-21T06:13:41.001Z,6.63
2019-04-21T06:16:03.215Z,6.72
2019-04-21T06:18:42.276Z,6.77
2019-04-21T06:23:40.203Z,7.21
2019-04-21T06:26:26.959Z,7.50
2019-04-21T06:28:50.270Z,7.51
2019-04-21T06:31:33.910Z,7.58
2019-04-21T06:33:57.418Z,7.78
2019-04-21T06:36:47.473Z,7.92
2019-04-21T06:39:11.986Z,8.01
2019-04-21T06:41:38.026Z,8.08
2019-04-21T06:44:12.884Z,8.45
2019-04-21T06:47:00.350Z,8.61
2019-04-21T06:49:13.345Z,8.78
2019-04-21T06:51:49.781Z,8.92
2019-04-21T06:54:27.676Z,9.12
2019-04-21T06:56:58.618Z,9.33
2019-04-21T06:59:29.300Z,9.45
2019-04-21T07:02:24.839Z,9.85
2019-04-21T07:07:12.336Z,10.24
2019-04-21T07:09:42.723Z,10.51
2019-04-21T07:12:13.714Z,10.61
2019-04-21T07:14:53.330Z,10.80
2019-04-21T07:20:01.865Z,11.03
2019-04-21T07:22:31.906Z,11.22
2019-04-21T07:25:10.551Z,11.37
2019-04-21T07:27:41.520Z,11.59
2019-04-21T07:30:17.705Z,11.74
2019-04-21T07:32:55.380Z,11.91
2019-04-21T07:35:21.754Z,12.01
2019-04-21T07:37:53.441Z,12.17
2019-04-21T07:40:22.284Z,12.26
2019-04-21T07:42:51.439Z,12.57
2019-04-21T07:45:26.557Z,12.64
2019-04-21T07:48:11.303Z,12.82
2019-04-21T07:50:57.692Z,13.04
2019-04-21T07:53:48.198Z,13.18
2019-04-21T07:55:51.273Z,13.35
2019-04-21T07:58:47.535Z,13.49
2019-04-21T08:01:18.046Z,13.65
2019-04-21T08:03:46.120Z,13.92
2019-04-21T08:06:26.826Z,13.97
2019-04-21T08:08:52.976Z,14.08
2019-04-21T08:11:25.412Z,14.18
2019-04-21T08:14:01.155Z,14.29
2019-04-21T08:16:37.251Z,14.45
2019-04-21T08:19:09.616Z,14.76
2019-04-21T08:21:43.040Z,14.91
2019-04-21T08:24:17.245Z,15.10
2019-04-21T08:26:54.013Z,15.51
2019-04-21T08:32:03.114Z,15.82
2019-04-21T08:37:02.295Z,15.87
2019-04-21T08:39:43.025Z,16.07
2019-04-21T08:42:03.322Z,16.47
2019-04-21T08:44:46.698Z,16.33
2019-04-21T08:47:18.396Z,16.90
2019-04-21T08:49:47.517Z,17.04
2019-04-21T08:52:42.516Z,17.47
2019-04-21T08:55:03.353Z,17.51
2019-04-21T08:58:14.161Z,17.53
2019-04-21T09:00:55.064Z,18.63
2019-04-21T09:03:51.961Z,18.93
2019-04-21T09:06:27.360Z,19.23
2019-04-21T09:08:55.446Z,19.81
2019-04-21T09:11:22.632Z,19.75
2019-04-21T09:13:58.511Z,20.68
2019-04-21T09:16:27.901Z,20.72
2019-04-21T09:18:57.097Z,21.33
2019-04-21T09:21:39.507Z,22.45
2019-04-21T09:24:13.391Z,22.40
2019-04-21T09:26:42.882Z,23.00
2019-04-21T09:29:13.089Z,23.25
2019-04-21T09:31:39.159Z,23.71
2019-04-21T09:34:08.376Z,24.02
2019-04-21T09:36:46.445Z,24.37
2019-04-21T09:39:18.861Z,25.15
2019-04-21T09:41:51.746Z,25.67
2019-04-21T09:44:27.537Z,25.25
2019-04-21T09:46:57.933Z,24.79
2019-04-21T09:49:31.320Z,24.64
2019-04-21T09:52:02.087Z,25.34
2019-04-21T09:54:45.233Z,25.85
2019-04-21T09:57:15.234Z,25.97
2019-04-21T09:59:47.531Z,25.71
2019-04-21T10:02:20.037Z,26.51
2019-04-21T10:04:46.789Z,26.37
2019-04-21T10:07:26.488Z,26.53
2019-04-21T10:09:52.286Z,26.20
2019-04-21T10:12:23.772Z,25.75
2019-04-21T10:14:55.367Z,26.41
2019-04-21T10:17:35.015Z,25.25
2019-04-21T10:20:09.501Z,26.21
2019-04-21T10:22:41.685Z,27.28
2019-04-21T10:25:14.529Z,27.06
2019-04-21T10:27:47.261Z,27.06
2019-04-21T10:30:20.388Z,28.13
2019-04-21T10:32:52.457Z,28.13
2019-04-21T10:35:25.041Z,27.03
2019-04-21T10:38:10.473Z,26.24
2019-04-21T10:40:32.588Z,28.68
2019-04-21T10:43:03.990Z,27.58
2019-04-21T10:45:36.883Z,25.91
2019-04-21T10:48:08.164Z,26.42
2019-04-21T10:50:39.489Z,25.64
2019-04-21T10:53:16.588Z,25.64
2019-04-21T10:56:00.368Z,26.06
2019-04-21T10:58:24.941Z,25.50
2019-04-21T11:01:23.046Z,26.85
2019-04-21T11:04:17.250Z,25.32
2019-04-21T11:06:44.401Z,26.25
2019-04-21T11:09:15.979Z,26.49
2019-04-21T11:11:50.324Z,26.16
2019-04-21T11:14:23.200Z,29.87
2019-04-21T11:16:56.504Z,27.95
2019-04-21T11:19:28.637Z,26.56
2019-04-21T11:22:01.042Z,26.40
2019-04-21T11:24:33.248Z,26.83
2019-04-21T11:27:06.717Z,26.43
2019-04-21T11:29:39.246Z,26.25
2019-04-21T11:32:10.938Z,26.48
2019-04-21T11:34:43.145Z,26.90
2019-04-21T11:37:16.626Z,27.89
2019-04-21T11:39:55.072Z,29.99
2019-04-21T11:42:30.720Z,28.46
2019-04-21T11:45:03.859Z,27.61
2019-04-21T11:47:40.671Z,27.46
2019-04-21T11:50:13.101Z,29.02
2019-04-21T11:52:47.328Z,29.18
2019-04-21T11:55:20.581Z,28.66
2019-04-21T11:57:54.538Z,28.03
2019-04-21T12:00:25.764Z,26.15
2019-04-21T12:02:57.925Z,28.36
2019-04-21T12:05:30.746Z,28.36
2019-04-21T12:08:02.149Z,28.59
2019-04-21T12:10:35.573Z,27.95
2019-04-21T12:13:08.366Z,28.98
2019-04-21T12:15:40.922Z,29.07
2019-04-21T12:18:12.636Z,30.11
2019-04-21T12:20:45.147Z,29.25
2019-04-21T12:23:16.721Z,27.20
2019-04-21T12:25:51.385Z,27.31
2019-04-21T12:28:23.880Z,26.80
2019-04-21T12:30:56.074Z,27.86
2019-04-21T12:33:45.825Z,27.48
2019-04-21T12:36:17.903Z,28.06
2019-04-21T12:38:55.563Z,28.67
2019-04-21T12:41:22.576Z,28.86
2019-04-21T12:43:54.956Z,29.00
2019-04-21T12:46:27.687Z,31.01
2019-04-21T12:48:59.950Z,33.47
2019-04-21T12:51:31.414Z,31.63
2019-04-21T12:54:03.800Z,30.60
2019-04-21T12:56:35.937Z,30.26
2019-04-21T12:59:07.990Z,29.02
2019-04-21T13:01:41.063Z,26.99
2019-04-21T13:04:13.494Z,26.41
2019-04-21T13:06:45.786Z,26.73
2019-04-21T13:09:20.326Z,28.04
2019-04-21T13:11:51.023Z,28.94
2019-04-21T13:14:22.387Z,27.29
2019-04-21T13:16:55.133Z,27.61
2019-04-21T13:19:27.333Z,26.65
2019-04-21T13:22:00.193Z,26.52
2019-04-21T13:24:33.676Z,25.84
2019-04-21T13:27:07.002Z,26.26
2019-04-21T13:29:39.518Z,26.39
2019-04-21T13:32:12.454Z,26.84
2019-04-21T13:34:44.392Z,28.12
2019-04-21T13:37:17.334Z,27.57
2019-04-21T13:40:38.845Z,27.78
2019-04-21T13:42:53.193Z,30.09
2019-04-21T13:45:21.891Z,26.59
2019-04-21T13:47:54.753Z,25.75
2019-04-21T13:50:26.185Z,26.24
2019-04-21T13:52:58.676Z,26.51
2019-04-21T13:55:30.072Z,26.71
2019-04-21T13:58:06.404Z,27.21
2019-04-21T14:00:38.031Z,27.06
2019-04-21T14:03:10.433Z,27.52
2019-04-21T14:05:42.468Z,27.08
2019-04-21T14:08:15.434Z,27.07
2019-04-21T14:10:47.346Z,27.42
2019-04-21T14:13:20.494Z,27.90
2019-04-21T14:15:51.892Z,27.81
2019-04-21T14:18:23.208Z,28.52
2019-04-21T14:20:55.491Z,27.43
2019-04-21T14:23:35.580Z,27.22
2019-04-21T14:26:01.657Z,26.66
2019-04-21T14:28:33.571Z,26.79
2019-04-21T14:31:06.217Z,27.82
2019-04-21T14:33:38.623Z,26.63
2019-04-21T14:36:10.713Z,27.45
2019-04-21T14:38:42.704Z,27.72
2019-04-21T14:41:14.612Z,27.12
2019-04-21T14:43:46.078Z,26.86
2019-04-21T14:46:22.323Z,26.65
2019-04-21T14:49:17.360Z,26.55
2019-04-21T14:52:01.465Z,26.76
2019-04-21T14:54:54.442Z,26.43
2019-04-21T14:57:27.279Z,26.57
2019-04-21T14:59:58.696Z,26.12
2019-04-21T15:02:30.004Z,25.75
2019-04-21T15:05:02.132Z,26.28
2019-04-21T15:07:33.535Z,26.90
2019-04-21T15:10:13.342Z,25.23
2019-04-21T15:12:41.453Z,25.27
2019-04-21T15:15:13.946Z,24.59
2019-04-21T15:17:46.364Z,25.02
2019-04-21T15:20:19.586Z,24.90
2019-04-21T15:22:52.807Z,25.78
2019-04-21T15:25:24.140Z,26.06
2019-04-21T15:27:55.397Z,26.71
2019-04-21T15:30:26.985Z,26.25
2019-04-21T15:32:58.704Z,25.96
2019-04-21T15:35:31.043Z,26.27
2019-04-21T15:38:04.075Z,26.11
2019-04-21T15:40:44.590Z,26.25
2019-04-21T15:43:10.585Z,25.96
2019-04-21T15:45:42.490Z,24.63
2019-04-21T15:48:14.504Z,24.93
2019-04-21T15:50:46.152Z,25.09
2019-04-21T15:53:19.379Z,25.11
2019-04-21T15:56:17.321Z,25.53
2019-04-21T15:59:04.345Z,25.56
2019-04-21T16:01:48.425Z,25.08
2019-04-21T16:04:20.842Z,25.29
2019-04-21T16:06:53.438Z,24.63
2019-04-21T16:09:26.942Z,24.67
2019-04-21T16:11:58.045Z,24.76
2019-04-21T16:14:29.334Z,25.26
2019-04-21T16:17:01.261Z,24.16
2019-04-21T16:19:33.376Z,24.21
2019-04-21T16:22:04.756Z,24.41
2019-04-21T16:24:37.783Z,23.99
2019-04-21T16:27:11.073Z,24.37
2019-04-21T16:29:43.861Z,23.96
2019-04-21T16:32:18.361Z,23.89
2019-04-21T16:34:54.352Z,24.05
2019-04-21T16:37:21.626Z,24.02
2019-04-21T16:39:53.675Z,23.86
2019-04-21T16:42:25.126Z,23.52
2019-04-21T16:44:56.826Z,23.42
2019-04-21T16:47:28.323Z,23.58
2019-04-21T16:50:01.533Z,23.31
2019-04-21T16:52:38.282Z,23.51
2019-04-21T16:55:37.064Z,23.16
2019-04-21T16:58:45.666Z,23.21
2019-04-21T17:01:22.416Z,23.33
2019-04-21T17:03:54.731Z,23.18
2019-04-21T17:06:27.010Z,22.79
2019-04-21T17:08:58.957Z,22.73
2019-04-21T17:11:35.178Z,22.82
2019-04-21T17:14:05.659Z,22.95
2019-04-21T17:17:00.272Z,23.10
2019-04-21T17:19:18.933Z,23.18
2019-04-21T17:21:43.705Z,22.86
2019-04-21T17:24:16.744Z,22.82
2019-04-21T17:26:49.539Z,22.54
2019-04-21T17:29:22.731Z,22.54
2019-04-21T17:31:55.294Z,22.64
2019-04-21T17:34:28.838Z,22.65
2019-04-21T17:37:01.017Z,22.49
2019-04-21T17:39:32.662Z,22.76
2019-04-21T17:42:15.200Z,22.58
2019-04-21T17:44:37.363Z,22.41
2019-04-21T17:47:19.238Z,22.60
2019-04-21T17:49:43.152Z,22.59
2019-04-21T17:52:45.954Z,21.63
2019-04-21T17:55:27.558Z,21.54
2019-04-21T17:58:09.757Z,21.88
2019-04-21T18:03:40.295Z,21.90
2019-04-21T18:05:56.296Z,21.79
2019-04-21T18:08:32.557Z,21.51
2019-04-21T18:10:57.912Z,21.36
2019-04-21T18:13:23.471Z,20.88
2019-04-21T18:16:08.338Z,20.74
2019-04-21T18:18:26.952Z,20.53
2019-04-21T18:21:05.260Z,20.28
2019-04-21T18:23:50.524Z,20.34
2019-04-21T18:26:31.871Z,20.13
2019-04-21T18:28:53.221Z,20.17
2019-04-21T18:31:23.020Z,20.01
2019-04-21T18:34:14.800Z,20.01
2019-04-21T18:36:52.502Z,19.89
2019-04-21T18:40:02.439Z,19.76
2019-04-21T18:42:55.536Z,19.37
2019-04-21T18:45:55.398Z,19.37
2019-04-21T18:48:21.795Z,19.13
2019-04-21T18:51:11.389Z,18.81
2019-04-21T18:54:02.208Z,18.52
2019-04-21T18:56:20.630Z,18.40
2019-04-21T18:58:51.838Z,18.34
2019-04-21T19:01:28.215Z,18.07
2019-04-21T19:03:58.316Z,18.23
2019-04-21T19:06:45.362Z,18.08
2019-04-21T19:09:26.724Z,18.00
2019-04-21T19:11:54.941Z,17.96
2019-04-21T19:14:32.274Z,17.74
2019-04-21T19:17:29.171Z,17.72
2019-04-21T19:19:46.738Z,17.40
2019-04-21T19:22:13.553Z,17.31
2019-04-21T19:24:48.970Z,17.06
2019-04-21T19:27:17.137Z,17.00
2019-04-21T19:30:02.856Z,16.92
2019-04-21T19:32:23.887Z,16.84
2019-04-21T19:34:40.869Z,16.76
2019-04-21T19:37:16.443Z,16.65
2019-04-21T19:40:00.501Z,16.54
2019-04-21T19:42:29.105Z,16.54
2019-04-21T19:45:05.641Z,16.45
2019-04-21T19:47:46.078Z,16.35
2019-04-21T19:50:16.890Z,16.37
2019-04-21T19:52:39.902Z,16.33
2019-04-21T19:55:04.410Z,16.20
2019-04-21T19:57:36.693Z,16.02
2019-04-21T20:00:10.097Z,15.97
2019-04-21T20:02:42.821Z,15.92
2019-04-21T20:05:24.435Z,15.80
2019-04-21T20:08:03.761Z,15.74
2019-04-21T20:10:42.327Z,15.62
2019-04-21T20:13:18.079Z,15.56
2019-04-21T20:15:49.092Z,15.53
2019-04-21T20:18:12.488Z,15.43
2019-04-21T20:20:35.235Z,15.41
2019-04-21T20:23:13.171Z,15.24
2019-04-21T20:25:48.463Z,15.10
2019-04-21T20:28:22.180Z,15.09
2019-04-21T20:31:08.311Z,14.92
2019-04-21T20:36:15.839Z,14.70
2019-04-21T20:38:39.926Z,14.66
2019-04-21T20:41:15.882Z,14.59
2019-04-21T20:43:58.477Z,14.56
2019-04-21T20:46:24.678Z,14.37
2019-04-21T20:48:51.237Z,14.25
2019-04-21T20:51:27.173Z,14.28
2019-04-21T20:54:03.213Z,14.22
2019-04-21T20:56:41.018Z,14.08
2019-04-21T20:59:12.099Z,13.83
2019-04-21T21:08:11.486Z,13.45
2019-04-21T21:10:38.616Z,13.50
2019-04-21T21:15:51.394Z,13.47
2019-04-21T21:18:41.092Z,13.28
2019-04-21T21:20:59.129Z,13.25
2019-04-21T21:23:33.497Z,13.26
2019-04-21T21:26:09.703Z,13.26
2019-04-21T21:28:34.078Z,13.16
2019-04-21T21:31:08.044Z,13.09
2019-04-21T21:33:52.529Z,13.08
2019-04-21T21:36:13.837Z,13.04
2019-04-21T21:38:51.844Z,12.82
2019-04-21T21:41:13.818Z,12.85
2019-04-21T21:43:39.241Z,12.78
2019-04-21T21:46:27.159Z,12.79
2019-04-21T21:48:54.082Z,12.67
2019-04-21T21:51:26.932Z,12.67
2019-04-21T21:53:48.866Z,12.42
2019-04-21T21:56:20.553Z,12.29
2019-04-21T21:58:53.436Z,12.14
2019-04-21T22:01:31.804Z,11.81
2019-04-21T22:04:08.342Z,11.62
2019-04-21T22:06:41.986Z,11.77
2019-04-21T22:09:10.034Z,11.52
2019-04-21T22:11:42.211Z,11.74
2019-04-21T22:14:22.881Z,11.71
2019-04-21T22:17:06.818Z,11.70
2019-04-21T22:19:46.921Z,11.63
2019-04-21T22:22:09.678Z,11.58
2019-04-21T22:24:41.439Z,11.49
2019-04-21T22:27:01.174Z,11.51
2019-04-21T22:29:36.379Z,11.51
2019-04-21T22:32:11.356Z,11.41
2019-04-21T22:34:47.753Z,11.28
2019-04-21T22:37:27.561Z,10.90
2019-04-21T22:39:57.894Z,10.75
2019-04-21T22:42:22.411Z,10.80
2019-04-21T22:44:50.277Z,10.72
2019-04-21T22:47:26.999Z,10.57
2019-04-21T22:49:54.712Z,10.56
2019-04-21T22:52:29.592Z,10.56
2019-04-21T22:55:00.824Z,10.57
2019-04-21T22:57:36.507Z,10.66
2019-04-21T23:00:10.778Z,10.63
2019-04-21T23:02:39.361Z,10.54
2019-04-21T23:05:15.558Z,10.48
2019-04-21T23:07:51.200Z,10.43
2019-04-21T23:10:19.224Z,10.54
2019-04-21T23:12:52.192Z,10.48
2019-04-21T23:15:33.228Z,10.48
2019-04-21T23:18:12.060Z,10.43
2019-04-21T23:20:47.640Z,10.43
2019-04-21T23:23:23.685Z,10.40
2019-04-21T23:25:53.098Z,10.42
2019-04-21T23:28:29.707Z,10.35
2019-04-21T23:31:00.436Z,10.35
2019-04-21T23:33:19.226Z,10.27
2019-04-21T23:35:49.505Z,10.17
2019-04-21T23:38:28.211Z,10.08
2019-04-21T23:40:58.692Z,10.04
2019-04-21T23:43:30.010Z,10.03
2019-04-21T23:46:04.221Z,10.05
2019-04-21T23:48:48.886Z,10.03
2019-04-21T23:51:15.961Z,9.95
2019-04-21T23:53:41.481Z,9.95
2019-04-21T23:56:20.262Z,9.93
2019-04-21T23:58:51.978Z,9.93
